Asahi Maru No.25 — JD3598 — position and weather

sailwx.info

Track history (hours):
 
Tides and Currents Weather Stations Pressure Air Temp Water Temp Dewpoint Dewpoint Depression Visibility Wind Speed Wind Dir Waves Ship Positions

Asahi Maru No.25

Last reported at 2018-Jul-22 10:32 UTC. Time now 2018-Jul-22 12:48 UTC.
Position N 34°31' E 135°25'.

Length 73 m; draft 4.8 m.

Type: Tanker. MMSI: 431005058.

Date/timePositionNaut miles runAvg speedWind from/ knotsBaromVisibWave heightAir tempDewpointWater temp
2018-Jul-22 10:32N 34°31' E 135°25'0 0.0
2018-Jul-22 10:30N 34°31' E 135°25'0 0.0
2018-Jul-22 09:56N 34°31' E 135°25'0 0.0
2018-Jul-22 09:30N 34°31' E 135°25'0 0.0
2018-Jul-22 09:00N 34°31' E 135°25'0 0.0
2018-Jul-22 07:25N 34°31' E 135°25'2 4.2
2018-Jul-22 07:00N 34°32' E 135°24'612.7
2018-Jul-22 06:30N 34°33' E 135°16'612.7
2018-Jul-22 06:00N 34°34' E 135°08'612.1
2018-Jul-22 05:30N 34°36' E 135°01'811.2
2018-Jul-22 04:47N 34°34' E 134°52'412.3
2018-Jul-22 04:29N 34°33' E 134°48'612.4
2018-Jul-22 04:00N 34°30' E 134°41'612.5
2018-Jul-22 03:30N 34°28' E 134°34'612.5
2018-Jul-22 03:00N 34°26' E 134°27'6 0.1
2018-Jul-20 07:46N 34°25' E 134°20'312.0
2018-Jul-20 07:30N 34°27' E 134°24'612.0
2018-Jul-20 07:00N 34°29' E 134°30'612.3
2018-Jul-20 06:30N 34°30' E 134°38'612.4
2018-Jul-20 06:00N 34°33' E 134°45'713.3
2018-Jul-20 05:30N 34°35' E 134°52'812.9
2018-Jul-20 04:53N 34°37' E 135°02'512.2
2018-Jul-20 04:30N 34°35' E 135°07'611.4
2018-Jul-20 04:00N 34°35' E 135°14'611.4
2018-Jul-20 03:30N 34°34' E 135°20'5 9.2
2018-Jul-20 02:59N 34°34' E 135°26'0 0.0
2018-Jul-20 01:07N 34°34' E 135°26'0 0.0
2018-Jul-20 01:00N 34°34' E 135°26'0 0.0
2018-Jul-19 23:37N 34°34' E 135°26'0 0.2
2018-Jul-19 23:30N 34°34' E 135°26'3 6.8
2018-Jul-19 23:00N 34°33' E 135°22'2 4.6
2018-Jul-19 22:30N 34°32' E 135°20'0 0.0
2018-Jul-19 22:00N 34°32' E 135°20'0 0.0
2018-Jul-19 21:30N 34°32' E 135°20'0 0.0
2018-Jul-19 21:00N 34°32' E 135°20'0 0.0
2018-Jul-19 20:30N 34°32' E 135°20'0 0.0
2018-Jul-19 20:00N 34°32' E 135°20'0 0.0
2018-Jul-19 19:22N 34°32' E 135°20'0 0.1
2018-Jul-19 19:00N 34°32' E 135°20'0 0.1
2018-Jul-19 18:30N 34°32' E 135°20'0 0.1
2018-Jul-19 17:56N 34°32' E 135°20'0 0.0
2018-Jul-19 17:28N 34°32' E 135°20'0 0.0
2018-Jul-19 16:56N 34°32' E 135°20'0 0.0
2018-Jul-19 16:30N 34°32' E 135°20'0 0.0
2018-Jul-19 16:00N 34°32' E 135°20'0 0.0
2018-Jul-19 15:30N 34°32' E 135°20'0 0.0
2018-Jul-19 14:55N 34°32' E 135°20'7 7.6
2018-Jul-19 14:00N 34°34' E 135°12'713.5
2018-Jul-19 13:30N 34°35' E 135°04'1011.5
2018-Jul-19 12:39N 34°34' E 134°52'212.9
2018-Jul-19 12:30N 34°33' E 134°50'613.2
2018-Jul-19 12:01N 34°31' E 134°43'612.8
2018-Jul-19 11:30N 34°29' E 134°35'612.9
2018-Jul-19 11:00N 34°26' E 134°28'612.8
2018-Jul-19 10:30N 34°24' E 134°21'  
2018-Jul-16 09:18N 34°25' E 134°20'311.3
2018-Jul-16 09:01N 34°26' E 134°23'611.9
2018-Jul-16 08:31N 34°29' E 134°30'611.7
2018-Jul-16 08:01N 34°31' E 134°37'611.2
2018-Jul-16 07:30N 34°32' E 134°43'510.5
2018-Jul-16 07:00N 34°34' E 134°49'5 9.2
2018-Jul-16 06:25N 34°36' E 134°55'5 8.1
2018-Jul-16 05:46N 34°37' E 135°01'2 7.9
2018-Jul-16 05:30N 34°36' E 135°04'510.0
2018-Jul-16 05:00N 34°35' E 135°09'611.8
2018-Jul-16 04:30N 34°34' E 135°17'611.5
2018-Jul-16 04:00N 34°33' E 135°23'2 2.7
2018-Jul-16 03:10N 34°34' E 135°26'0 0.0
2018-Jul-16 02:48N 34°34' E 135°26'0 0.0
2018-Jul-16 02:31N 34°34' E 135°26'0 0.0
2018-Jul-16 02:00N 34°34' E 135°26'0 0.0
2018-Jul-16 01:29N 34°34' E 135°26'0 0.0
2018-Jul-16 00:02N 34°34' E 135°26'0 0.0
2018-Jul-16 00:00N 34°34' E 135°26'1 1.8
2018-Jul-15 23:30N 34°33' E 135°25'4 8.2
2018-Jul-15 23:01N 34°32' E 135°21'0 0.1
2018-Jul-15 22:30N 34°32' E 135°21'0 0.0
2018-Jul-15 22:00N 34°32' E 135°21'0 0.0
2018-Jul-15 21:20N 34°32' E 135°21'0 0.0
2018-Jul-15 21:00N 34°32' E 135°21'0 0.0
2018-Jul-15 20:29N 34°32' E 135°21'0 0.1
2018-Jul-15 19:58N 34°31' E 135°21'0 0.1
2018-Jul-15 19:30N 34°31' E 135°21'0 0.0
2018-Jul-15 19:00N 34°32' E 135°21'2 5.0
2018-Jul-15 18:30N 34°32' E 135°18'612.6
2018-Jul-15 18:00N 34°34' E 135°10'713.4
2018-Jul-15 17:30N 34°36' E 135°03'912.2
2018-Jul-15 16:47N 34°34' E 134°52'311.6
2018-Jul-15 16:30N 34°33' E 134°49'611.5
2018-Jul-15 16:01N 34°31' E 134°42'612.5
2018-Jul-15 15:30N 34°29' E 134°35'713.2
2018-Jul-15 15:00N 34°26' E 134°28'  
2018-Jul-12 15:03N 34°24' E 134°20'112.1
2018-Jul-12 14:56N 34°25' E 134°21'512.2
2018-Jul-12 14:30N 34°27' E 134°27'612.2
2018-Jul-12 14:00N 34°29' E 134°34'612.2
2018-Jul-12 13:31N 34°31' E 134°41'713.6
2018-Jul-12 13:00N 34°34' E 134°49'814.4
2018-Jul-12 12:27N 34°37' E 134°57'613.0
2018-Jul-12 12:00N 34°36' E 135°04'611.6
2018-Jul-12 11:30N 34°35' E 135°11'611.9
2018-Jul-12 11:00N 34°34' E 135°18'  
Track history (hours):
 
Tides and Currents Weather Stations Pressure Air Temp Water Temp Dewpoint Dewpoint Depression Visibility Wind Speed Wind Dir Waves Ship Positions

Asahi Maru No.25

Last reported at 2018-Jul-22 10:32 UTC. Time now 2018-Jul-22 12:48 UTC.
Position N 34°31' E 135°25'.

Length 73 m; draft 4.8 m.

Type: Tanker. MMSI: 431005058.

Date/timePositionNaut miles runAvg speedWind from/ knotsBaromVisibWave heightAir tempDewpointWater temp
2018-Jul-22 10:32N 34°31' E 135°25'0 0.0
2018-Jul-22 10:30N 34°31' E 135°25'0 0.0
2018-Jul-22 09:56N 34°31' E 135°25'0 0.0
2018-Jul-22 09:30N 34°31' E 135°25'0 0.0
2018-Jul-22 09:00N 34°31' E 135°25'0 0.0
2018-Jul-22 07:25N 34°31' E 135°25'2 4.2
2018-Jul-22 07:00N 34°32' E 135°24'612.7
2018-Jul-22 06:30N 34°33' E 135°16'612.7
2018-Jul-22 06:00N 34°34' E 135°08'612.1
2018-Jul-22 05:30N 34°36' E 135°01'811.2
2018-Jul-22 04:47N 34°34' E 134°52'412.3
2018-Jul-22 04:29N 34°33' E 134°48'612.4
2018-Jul-22 04:00N 34°30' E 134°41'612.5
2018-Jul-22 03:30N 34°28' E 134°34'612.5
2018-Jul-22 03:00N 34°26' E 134°27'6 0.1
2018-Jul-20 07:46N 34°25' E 134°20'312.0
2018-Jul-20 07:30N 34°27' E 134°24'612.0
2018-Jul-20 07:00N 34°29' E 134°30'612.3
2018-Jul-20 06:30N 34°30' E 134°38'612.4
2018-Jul-20 06:00N 34°33' E 134°45'713.3
2018-Jul-20 05:30N 34°35' E 134°52'812.9
2018-Jul-20 04:53N 34°37' E 135°02'512.2
2018-Jul-20 04:30N 34°35' E 135°07'611.4
2018-Jul-20 04:00N 34°35' E 135°14'611.4
2018-Jul-20 03:30N 34°34' E 135°20'5 9.2
2018-Jul-20 02:59N 34°34' E 135°26'0 0.0
2018-Jul-20 01:07N 34°34' E 135°26'0 0.0
2018-Jul-20 01:00N 34°34' E 135°26'0 0.0
2018-Jul-19 23:37N 34°34' E 135°26'0 0.2
2018-Jul-19 23:30N 34°34' E 135°26'3 6.8
2018-Jul-19 23:00N 34°33' E 135°22'2 4.6
2018-Jul-19 22:30N 34°32' E 135°20'0 0.0
2018-Jul-19 22:00N 34°32' E 135°20'0 0.0
2018-Jul-19 21:30N 34°32' E 135°20'0 0.0
2018-Jul-19 21:00N 34°32' E 135°20'0 0.0
2018-Jul-19 20:30N 34°32' E 135°20'0 0.0
2018-Jul-19 20:00N 34°32' E 135°20'0 0.0
2018-Jul-19 19:22N 34°32' E 135°20'0 0.1
2018-Jul-19 19:00N 34°32' E 135°20'0 0.1
2018-Jul-19 18:30N 34°32' E 135°20'0 0.1
2018-Jul-19 17:56N 34°32' E 135°20'0 0.0
2018-Jul-19 17:28N 34°32' E 135°20'0 0.0
2018-Jul-19 16:56N 34°32' E 135°20'0 0.0
2018-Jul-19 16:30N 34°32' E 135°20'0 0.0
2018-Jul-19 16:00N 34°32' E 135°20'0 0.0
2018-Jul-19 15:30N 34°32' E 135°20'0 0.0
2018-Jul-19 14:55N 34°32' E 135°20'7 7.6
2018-Jul-19 14:00N 34°34' E 135°12'713.5
2018-Jul-19 13:30N 34°35' E 135°04'1011.5
2018-Jul-19 12:39N 34°34' E 134°52'212.9
2018-Jul-19 12:30N 34°33' E 134°50'613.2
2018-Jul-19 12:01N 34°31' E 134°43'612.8
2018-Jul-19 11:30N 34°29' E 134°35'612.9
2018-Jul-19 11:00N 34°26' E 134°28'612.8
2018-Jul-19 10:30N 34°24' E 134°21'  
2018-Jul-16 09:18N 34°25' E 134°20'311.3
2018-Jul-16 09:01N 34°26' E 134°23'611.9
2018-Jul-16 08:31N 34°29' E 134°30'611.7
2018-Jul-16 08:01N 34°31' E 134°37'611.2
2018-Jul-16 07:30N 34°32' E 134°43'510.5
2018-Jul-16 07:00N 34°34' E 134°49'5 9.2
2018-Jul-16 06:25N 34°36' E 134°55'5 8.1
2018-Jul-16 05:46N 34°37' E 135°01'2 7.9
2018-Jul-16 05:30N 34°36' E 135°04'510.0
2018-Jul-16 05:00N 34°35' E 135°09'611.8
2018-Jul-16 04:30N 34°34' E 135°17'611.5
2018-Jul-16 04:00N 34°33' E 135°23'2 2.7
2018-Jul-16 03:10N 34°34' E 135°26'0 0.0
2018-Jul-16 02:48N 34°34' E 135°26'0 0.0
2018-Jul-16 02:31N 34°34' E 135°26'0 0.0
2018-Jul-16 02:00N 34°34' E 135°26'0 0.0
2018-Jul-16 01:29N 34°34' E 135°26'0 0.0
2018-Jul-16 00:02N 34°34' E 135°26'0 0.0
2018-Jul-16 00:00N 34°34' E 135°26'1 1.8
2018-Jul-15 23:30N 34°33' E 135°25'4 8.2
2018-Jul-15 23:01N 34°32' E 135°21'0 0.1
2018-Jul-15 22:30N 34°32' E 135°21'0 0.0
2018-Jul-15 22:00N 34°32' E 135°21'0 0.0
2018-Jul-15 21:20N 34°32' E 135°21'0 0.0
2018-Jul-15 21:00N 34°32' E 135°21'0 0.0
2018-Jul-15 20:29N 34°32' E 135°21'0 0.1
2018-Jul-15 19:58N 34°31' E 135°21'0 0.1
2018-Jul-15 19:30N 34°31' E 135°21'0 0.0
2018-Jul-15 19:00N 34°32' E 135°21'2 5.0
2018-Jul-15 18:30N 34°32' E 135°18'612.6
2018-Jul-15 18:00N 34°34' E 135°10'713.4
2018-Jul-15 17:30N 34°36' E 135°03'912.2
2018-Jul-15 16:47N 34°34' E 134°52'311.6
2018-Jul-15 16:30N 34°33' E 134°49'611.5
2018-Jul-15 16:01N 34°31' E 134°42'612.5
2018-Jul-15 15:30N 34°29' E 134°35'713.2
2018-Jul-15 15:00N 34°26' E 134°28'  
2018-Jul-12 15:03N 34°24' E 134°20'112.1
2018-Jul-12 14:56N 34°25' E 134°21'512.2
2018-Jul-12 14:30N 34°27' E 134°27'612.2
2018-Jul-12 14:00N 34°29' E 134°34'612.2
2018-Jul-12 13:31N 34°31' E 134°41'713.6
2018-Jul-12 13:00N 34°34' E 134°49'814.4
2018-Jul-12 12:27N 34°37' E 134°57'613.0
2018-Jul-12 12:00N 34°36' E 135°04'611.6
2018-Jul-12 11:30N 34°35' E 135°11'611.9
2018-Jul-12 11:00N 34°34' E 135°18'  

Dump ship's entire track history